CEB573 RPLL-RPVM
Flight info
| Callsign | CEB573 |
|---|---|
| Flight time | 0h 57m |
| Altitude | 37000 |
| Route | IPATA2V/13 IPATA W25 BATAY BATAY3P |
| Aircraft | A20N/M-SDE2E3FGHIRWXY/LB1 |
Departure
| Time | 2026-05-04 11:47 |
|---|---|
| Airport | Ninoy Aquino International Airport (RPLL) |
Arrival
| Time | 2026-05-04 12:44 |
|---|---|
| Airport | Mactan Cebu International Airport (RPVM) |
| Time | Latitude | Longitude | Altitude | Speed | Heading |
|---|---|---|---|---|---|
| 2026-05-04 11:24 | 14.52195 | 121.01002 | 82 ft | 0 kts | 46° |
| 2026-05-04 11:36 | 14.52194 | 121.01001 | 82 ft | 1 kts | 46° |
| 2026-05-04 11:36 | 14.52184 | 121.00990 | 82 ft | 2 kts | 46° |
| 2026-05-04 11:37 | 14.52173 | 121.00979 | 81 ft | 2 kts | 46° |
| 2026-05-04 11:37 | 14.52163 | 121.00967 | 82 ft | 2 kts | 46° |
| 2026-05-04 11:37 | 14.52152 | 121.00957 | 82 ft | 2 kts | 46° |
| 2026-05-04 11:37 | 14.52142 | 121.00945 | 82 ft | 2 kts | 46° |
| 2026-05-04 11:38 | 14.52131 | 121.00935 | 82 ft | 2 kts | 46° |
| 2026-05-04 11:38 | 14.52121 | 121.00923 | 82 ft | 2 kts | 46° |
| 2026-05-04 11:38 | 14.52116 | 121.00917 | 82 ft | 1 kts | 30° |
| 2026-05-04 11:38 | 14.52106 | 121.00916 | 82 ft | 1 kts | 328° |
| 2026-05-04 11:39 | 14.52102 | 121.00920 | 82 ft | 1 kts | 306° |
| 2026-05-04 11:39 | 14.52099 | 121.00923 | 82 ft | 0 kts | 314° |
| 2026-05-04 11:42 | 14.52099 | 121.00922 | 82 ft | 0 kts | 314° |
| 2026-05-04 11:42 | 14.52103 | 121.00919 | 82 ft | 1 kts | 314° |
| 2026-05-04 11:42 | 14.52115 | 121.00906 | 82 ft | 3 kts | 314° |
| 2026-05-04 11:43 | 14.52134 | 121.00886 | 82 ft | 4 kts | 316° |
| 2026-05-04 11:43 | 14.52162 | 121.00858 | 82 ft | 6 kts | 315° |
| 2026-05-04 11:43 | 14.52196 | 121.00824 | 82 ft | 7 kts | 314° |
| 2026-05-04 11:43 | 14.52236 | 121.00782 | 82 ft | 8 kts | 315° |
| 2026-05-04 11:44 | 14.52284 | 121.00733 | 82 ft | 10 kts | 315° |
| 2026-05-04 11:44 | 14.52338 | 121.00677 | 82 ft | 11 kts | 315° |
| 2026-05-04 11:44 | 14.52396 | 121.00616 | 82 ft | 12 kts | 314° |
| 2026-05-04 11:44 | 14.52451 | 121.00560 | 82 ft | 8 kts | 315° |
| 2026-05-04 11:45 | 14.52488 | 121.00510 | 82 ft | 9 kts | 279° |
| 2026-05-04 11:45 | 14.52455 | 121.00451 | 82 ft | 10 kts | 224° |
| 2026-05-04 11:45 | 14.52408 | 121.00405 | 82 ft | 2 kts | 224° |
| 2026-05-04 11:45 | 14.52393 | 121.00395 | 82 ft | 3 kts | 197° |
| 2026-05-04 11:46 | 14.52369 | 121.00402 | 82 ft | 4 kts | 148° |
| 2026-05-04 11:46 | 14.52340 | 121.00430 | 82 ft | 12 kts | 135° |
| 2026-05-04 11:46 | 14.52081 | 121.00701 | 82 ft | 93 kts | 139° |
| 2026-05-04 11:46 | 14.51454 | 121.01347 | 118 ft | 154 kts | 136° |
| 2026-05-04 11:47 | 14.50681 | 121.02131 | 778 ft | 157 kts | 134° |
| 2026-05-04 11:47 | 14.49933 | 121.02894 | 1572 ft | 151 kts | 131° |
| 2026-05-04 11:47 | 14.49191 | 121.03665 | 2174 ft | 152 kts | 130° |
| 2026-05-04 11:47 | 14.48454 | 121.04443 | 2701 ft | 157 kts | 130° |
| 2026-05-04 11:48 | 14.47678 | 121.05261 | 3140 ft | 169 kts | 131° |
| 2026-05-04 11:48 | 14.46805 | 121.06173 | 3551 ft | 186 kts | 131° |
| 2026-05-04 11:48 | 14.45853 | 121.07161 | 3990 ft | 203 kts | 131° |
| 2026-05-04 11:48 | 14.44799 | 121.08254 | 4361 ft | 227 kts | 132° |
| 2026-05-04 11:49 | 14.43658 | 121.09485 | 4838 ft | 245 kts | 128° |
| 2026-05-04 11:49 | 14.42573 | 121.10922 | 5360 ft | 263 kts | 122° |
| 2026-05-04 11:49 | 14.41549 | 121.12532 | 6001 ft | 275 kts | 120° |
| 2026-05-04 11:49 | 14.40521 | 121.14184 | 6830 ft | 279 kts | 120° |
| 2026-05-04 11:50 | 14.39475 | 121.15870 | 7671 ft | 282 kts | 120° |
| 2026-05-04 11:50 | 14.38414 | 121.17577 | 8576 ft | 283 kts | 119° |
| 2026-05-04 11:50 | 14.37387 | 121.19225 | 9672 ft | 273 kts | 119° |
| 2026-05-04 11:50 | 14.36400 | 121.20815 | 10727 ft | 261 kts | 119° |
| 2026-05-04 11:51 | 14.35447 | 121.22353 | 11657 ft | 253 kts | 120° |
| 2026-05-04 11:51 | 14.34504 | 121.23876 | 12362 ft | 253 kts | 120° |
| 2026-05-04 11:51 | 14.33548 | 121.25417 | 12986 ft | 257 kts | 120° |
| 2026-05-04 11:51 | 14.32583 | 121.26968 | 13625 ft | 259 kts | 121° |
| 2026-05-04 11:52 | 14.31620 | 121.28516 | 14243 ft | 261 kts | 121° |
| 2026-05-04 11:52 | 14.30635 | 121.30098 | 14867 ft | 263 kts | 121° |
| 2026-05-04 11:52 | 14.29643 | 121.31690 | 15492 ft | 265 kts | 121° |
| 2026-05-04 11:52 | 14.28648 | 121.33287 | 16084 ft | 267 kts | 121° |
| 2026-05-04 11:53 | 14.27635 | 121.34912 | 16683 ft | 269 kts | 121° |
| 2026-05-04 11:53 | 14.26631 | 121.36523 | 17260 ft | 271 kts | 121° |
| 2026-05-04 11:53 | 14.25612 | 121.38159 | 17822 ft | 273 kts | 121° |
| 2026-05-04 11:53 | 14.24588 | 121.39803 | 18364 ft | 275 kts | 121° |
| 2026-05-04 11:55 | 14.17077 | 121.51822 | 21883 ft | 297 kts | 122° |
| 2026-05-04 11:55 | 14.15959 | 121.53611 | 22359 ft | 300 kts | 122° |
| 2026-05-04 11:56 | 14.14820 | 121.55433 | 22830 ft | 304 kts | 122° |
| 2026-05-04 11:56 | 14.13677 | 121.57261 | 23317 ft | 307 kts | 122° |
| 2026-05-04 11:56 | 14.12505 | 121.59134 | 23813 ft | 310 kts | 123° |
| 2026-05-04 11:56 | 14.11334 | 121.61005 | 24286 ft | 313 kts | 123° |
| 2026-05-04 11:57 | 14.10096 | 121.62852 | 24734 ft | 317 kts | 129° |
| 2026-05-04 11:57 | 14.08579 | 121.64516 | 24997 ft | 327 kts | 138° |
| 2026-05-04 11:57 | 14.06748 | 121.66015 | 25220 ft | 339 kts | 143° |
| 2026-05-04 11:57 | 14.04808 | 121.67486 | 25437 ft | 350 kts | 143° |
| 2026-05-04 11:58 | 14.02823 | 121.68983 | 25643 ft | 361 kts | 143° |
| 2026-05-04 11:58 | 14.00760 | 121.70543 | 25842 ft | 372 kts | 143° |
| 2026-05-04 11:58 | 13.98639 | 121.72153 | 26035 ft | 383 kts | 143° |
| 2026-05-04 11:58 | 13.96465 | 121.73807 | 26222 ft | 393 kts | 143° |
| 2026-05-04 11:59 | 13.94244 | 121.75498 | 26404 ft | 403 kts | 143° |
| 2026-05-04 11:59 | 13.91932 | 121.77261 | 26581 ft | 413 kts | 143° |
| 2026-05-04 11:59 | 13.89606 | 121.79034 | 26747 ft | 422 kts | 143° |
| 2026-05-04 11:59 | 13.87200 | 121.80867 | 26908 ft | 431 kts | 143° |
| 2026-05-04 12:00 | 13.84772 | 121.82708 | 27074 ft | 439 kts | 143° |
| 2026-05-04 12:00 | 13.82302 | 121.84570 | 27353 ft | 443 kts | 143° |
| 2026-05-04 12:00 | 13.79796 | 121.86457 | 27723 ft | 445 kts | 143° |
| 2026-05-04 12:00 | 13.77294 | 121.88341 | 28060 ft | 447 kts | 143° |
| 2026-05-04 12:01 | 13.74768 | 121.90244 | 28391 ft | 449 kts | 143° |
| 2026-05-04 12:01 | 13.72239 | 121.92150 | 28702 ft | 451 kts | 143° |
| 2026-05-04 12:02 | 13.56819 | 122.03770 | 30257 ft | 463 kts | 144° |
| 2026-05-04 12:03 | 13.54239 | 122.05714 | 30561 ft | 462 kts | 144° |
| 2026-05-04 12:03 | 13.51639 | 122.07671 | 30887 ft | 462 kts | 144° |
| 2026-05-04 12:03 | 13.49044 | 122.09624 | 31211 ft | 461 kts | 144° |
| 2026-05-04 12:03 | 13.46459 | 122.11568 | 31502 ft | 461 kts | 144° |
| 2026-05-04 12:04 | 13.43878 | 122.13509 | 31781 ft | 461 kts | 144° |
| 2026-05-04 12:04 | 13.41265 | 122.15472 | 32060 ft | 461 kts | 144° |
| 2026-05-04 12:04 | 13.38679 | 122.17416 | 32344 ft | 461 kts | 144° |
| 2026-05-04 12:04 | 13.36089 | 122.19363 | 32647 ft | 461 kts | 144° |
| 2026-05-04 12:05 | 13.33505 | 122.21304 | 32957 ft | 461 kts | 144° |
| 2026-05-04 12:05 | 13.30914 | 122.23250 | 33282 ft | 460 kts | 144° |
| 2026-05-04 12:05 | 13.28334 | 122.25187 | 33612 ft | 460 kts | 144° |
| 2026-05-04 12:05 | 13.25781 | 122.27103 | 33939 ft | 459 kts | 144° |
| 2026-05-04 12:06 | 13.23202 | 122.29039 | 34266 ft | 459 kts | 144° |
| 2026-05-04 12:06 | 13.20616 | 122.30979 | 34584 ft | 458 kts | 145° |
| 2026-05-04 12:06 | 13.17998 | 122.32944 | 34891 ft | 458 kts | 144° |
| 2026-05-04 12:06 | 13.15441 | 122.34860 | 35176 ft | 458 kts | 145° |
| 2026-05-04 12:07 | 13.12882 | 122.36780 | 35449 ft | 458 kts | 145° |
| 2026-05-04 12:07 | 13.10281 | 122.38728 | 35704 ft | 458 kts | 145° |
| 2026-05-04 12:07 | 13.07705 | 122.40657 | 35952 ft | 458 kts | 145° |
| 2026-05-04 12:07 | 13.05131 | 122.42584 | 36200 ft | 458 kts | 145° |
| 2026-05-04 12:08 | 13.02575 | 122.44497 | 36438 ft | 458 kts | 145° |
| 2026-05-04 12:08 | 12.99999 | 122.46426 | 36668 ft | 458 kts | 145° |
| 2026-05-04 12:08 | 12.97432 | 122.48349 | 36869 ft | 458 kts | 145° |
| 2026-05-04 12:08 | 12.94868 | 122.50268 | 36887 ft | 458 kts | 145° |
| 2026-05-04 12:09 | 12.89688 | 122.54142 | 36893 ft | 459 kts | 145° |
| 2026-05-04 12:09 | 12.84531 | 122.57997 | 36894 ft | 458 kts | 145° |
| 2026-05-04 12:10 | 12.79356 | 122.61865 | 36893 ft | 458 kts | 145° |
| 2026-05-04 12:10 | 12.74221 | 122.65698 | 36891 ft | 458 kts | 145° |
| 2026-05-04 12:11 | 12.69072 | 122.69540 | 36893 ft | 459 kts | 145° |
| 2026-05-04 12:11 | 12.63882 | 122.73414 | 36893 ft | 459 kts | 145° |
| 2026-05-04 12:12 | 12.58745 | 122.77245 | 36894 ft | 459 kts | 145° |
| 2026-05-04 12:12 | 12.53563 | 122.81108 | 36894 ft | 458 kts | 145° |
| 2026-05-04 12:14 | 12.32950 | 122.96460 | 36896 ft | 458 kts | 144° |
| 2026-05-04 12:15 | 12.27735 | 123.00329 | 36895 ft | 467 kts | 144° |
| 2026-05-04 12:15 | 12.22447 | 123.04252 | 36894 ft | 469 kts | 144° |
| 2026-05-04 12:16 | 12.17173 | 123.08167 | 36895 ft | 469 kts | 144° |
| 2026-05-04 12:16 | 12.11849 | 123.12119 | 36899 ft | 468 kts | 144° |
| 2026-05-04 12:17 | 12.09211 | 123.14077 | 36898 ft | 468 kts | 144° |
| 2026-05-04 12:18 | 11.95934 | 123.23918 | 36899 ft | 468 kts | 144° |
| 2026-05-04 12:18 | 11.90639 | 123.27843 | 36898 ft | 468 kts | 144° |
| 2026-05-04 12:19 | 11.85339 | 123.31767 | 36897 ft | 468 kts | 144° |
| 2026-05-04 12:19 | 11.80072 | 123.35667 | 36897 ft | 467 kts | 144° |
| 2026-05-04 12:20 | 11.74774 | 123.39588 | 36409 ft | 465 kts | 144° |
| 2026-05-04 12:20 | 11.72150 | 123.41527 | 35700 ft | 463 kts | 144° |
| 2026-05-04 12:20 | 11.69547 | 123.43451 | 34909 ft | 462 kts | 144° |
| 2026-05-04 12:21 | 11.66971 | 123.45353 | 34165 ft | 459 kts | 144° |
| 2026-05-04 12:21 | 11.64368 | 123.47277 | 33414 ft | 457 kts | 144° |
| 2026-05-04 12:21 | 11.61822 | 123.49158 | 32679 ft | 456 kts | 144° |
| 2026-05-04 12:21 | 11.59240 | 123.51064 | 31965 ft | 457 kts | 144° |
| 2026-05-04 12:22 | 11.56652 | 123.52975 | 31189 ft | 458 kts | 143° |
| 2026-05-04 12:22 | 11.54065 | 123.54884 | 30393 ft | 458 kts | 143° |
| 2026-05-04 12:22 | 11.51477 | 123.56792 | 29579 ft | 458 kts | 143° |
| 2026-05-04 12:22 | 11.48902 | 123.58691 | 29032 ft | 451 kts | 143° |
| 2026-05-04 12:23 | 11.46386 | 123.60547 | 28573 ft | 447 kts | 143° |
| 2026-05-04 12:23 | 11.43847 | 123.62421 | 28069 ft | 444 kts | 143° |
| 2026-05-04 12:23 | 11.41373 | 123.64247 | 27554 ft | 440 kts | 143° |
| 2026-05-04 12:23 | 11.38877 | 123.66089 | 27015 ft | 435 kts | 143° |
| 2026-05-04 12:24 | 11.36439 | 123.67888 | 26481 ft | 432 kts | 143° |
| 2026-05-04 12:24 | 11.34034 | 123.69661 | 25943 ft | 428 kts | 143° |
| 2026-05-04 12:24 | 11.31619 | 123.71442 | 25393 ft | 425 kts | 142° |
| 2026-05-04 12:24 | 11.29235 | 123.73199 | 24841 ft | 422 kts | 142° |
| 2026-05-04 12:25 | 11.26874 | 123.74939 | 24292 ft | 420 kts | 142° |
| 2026-05-04 12:25 | 11.24484 | 123.76701 | 23733 ft | 417 kts | 142° |
| 2026-05-04 12:25 | 11.22149 | 123.78422 | 23193 ft | 415 kts | 142° |
| 2026-05-04 12:25 | 11.19837 | 123.80125 | 22652 ft | 412 kts | 142° |
| 2026-05-04 12:26 | 11.17499 | 123.81845 | 22104 ft | 410 kts | 142° |
| 2026-05-04 12:26 | 11.15015 | 123.83285 | 21523 ft | 412 kts | 159° |
| 2026-05-04 12:26 | 11.12215 | 123.83796 | 20989 ft | 414 kts | 178° |
| 2026-05-04 12:26 | 11.09355 | 123.83363 | 20465 ft | 415 kts | 193° |
| 2026-05-04 12:27 | 11.06579 | 123.82569 | 19942 ft | 412 kts | 194° |
| 2026-05-04 12:27 | 11.03808 | 123.81767 | 19412 ft | 410 kts | 194° |
| 2026-05-04 12:27 | 11.01079 | 123.80984 | 18893 ft | 407 kts | 193° |
| 2026-05-04 12:27 | 10.98351 | 123.80212 | 18374 ft | 404 kts | 193° |
| 2026-05-04 12:28 | 10.95663 | 123.79454 | 17860 ft | 401 kts | 193° |
| 2026-05-04 12:28 | 10.92955 | 123.78696 | 17349 ft | 402 kts | 193° |
| 2026-05-04 12:28 | 10.90223 | 123.77936 | 16818 ft | 413 kts | 193° |
| 2026-05-04 12:28 | 10.87449 | 123.77163 | 16262 ft | 413 kts | 193° |
| 2026-05-04 12:29 | 10.84665 | 123.76385 | 15710 ft | 410 kts | 193° |
| 2026-05-04 12:29 | 10.81913 | 123.75616 | 15155 ft | 406 kts | 193° |
| 2026-05-04 12:29 | 10.79198 | 123.74858 | 14610 ft | 403 kts | 193° |
| 2026-05-04 12:29 | 10.76488 | 123.74103 | 14055 ft | 400 kts | 193° |
| 2026-05-04 12:30 | 10.73822 | 123.73360 | 13525 ft | 396 kts | 193° |
| 2026-05-04 12:30 | 10.71175 | 123.72623 | 12979 ft | 393 kts | 194° |
| 2026-05-04 12:30 | 10.68540 | 123.71890 | 12442 ft | 390 kts | 194° |
| 2026-05-04 12:30 | 10.65906 | 123.71156 | 11900 ft | 387 kts | 194° |
| 2026-05-04 12:31 | 10.63307 | 123.70431 | 11355 ft | 385 kts | 194° |
| 2026-05-04 12:31 | 10.60752 | 123.69720 | 10840 ft | 381 kts | 194° |
| 2026-05-04 12:31 | 10.58191 | 123.69006 | 10597 ft | 381 kts | 194° |
| 2026-05-04 12:31 | 10.55621 | 123.68291 | 10391 ft | 380 kts | 194° |
| 2026-05-04 12:32 | 10.53073 | 123.67581 | 10205 ft | 379 kts | 194° |
| 2026-05-04 12:32 | 10.48044 | 123.66181 | 9611 ft | 365 kts | 195° |
| 2026-05-04 12:32 | 10.45600 | 123.65500 | 9200 ft | 358 kts | 194° |
| 2026-05-04 12:33 | 10.43243 | 123.64843 | 8850 ft | 350 kts | 195° |
| 2026-05-04 12:33 | 10.40901 | 123.64190 | 8401 ft | 340 kts | 194° |
| 2026-05-04 12:33 | 10.38662 | 123.63566 | 7961 ft | 330 kts | 194° |
| 2026-05-04 12:33 | 10.36460 | 123.62964 | 7506 ft | 321 kts | 191° |
| 2026-05-04 12:34 | 10.34276 | 123.62908 | 7098 ft | 307 kts | 163° |
| 2026-05-04 12:34 | 10.32470 | 123.63888 | 6761 ft | 290 kts | 135° |
| 2026-05-04 12:34 | 10.31117 | 123.65357 | 6451 ft | 278 kts | 128° |
| 2026-05-04 12:34 | 10.29897 | 123.66818 | 6137 ft | 269 kts | 128° |
| 2026-05-04 12:35 | 10.28659 | 123.68237 | 5820 ft | 262 kts | 130° |
| 2026-05-04 12:35 | 10.27439 | 123.69559 | 5511 ft | 255 kts | 131° |
| 2026-05-04 12:35 | 10.26215 | 123.70840 | 5202 ft | 249 kts | 132° |
| 2026-05-04 12:35 | 10.25021 | 123.72068 | 4902 ft | 245 kts | 132° |
| 2026-05-04 12:36 | 10.23821 | 123.73295 | 4598 ft | 243 kts | 132° |
| 2026-05-04 12:36 | 10.22638 | 123.74500 | 4317 ft | 236 kts | 132° |
| 2026-05-04 12:36 | 10.21502 | 123.75652 | 3984 ft | 229 kts | 132° |
| 2026-05-04 12:36 | 10.20392 | 123.76779 | 3658 ft | 222 kts | 132° |
| 2026-05-04 12:37 | 10.19314 | 123.77874 | 3373 ft | 215 kts | 131° |
| 2026-05-04 12:37 | 10.18259 | 123.78944 | 3115 ft | 209 kts | 131° |
| 2026-05-04 12:37 | 10.17266 | 123.79951 | 3078 ft | 191 kts | 131° |
| 2026-05-04 12:37 | 10.16418 | 123.80910 | 3012 ft | 172 kts | 117° |
| 2026-05-04 12:38 | 10.16080 | 123.81985 | 2965 ft | 150 kts | 91° |
| 2026-05-04 12:38 | 10.16211 | 123.83001 | 2961 ft | 145 kts | 69° |
| 2026-05-04 12:38 | 10.16719 | 123.83878 | 2950 ft | 144 kts | 49° |
| 2026-05-04 12:38 | 10.17417 | 123.84596 | 2959 ft | 142 kts | 45° |
| 2026-05-04 12:39 | 10.18130 | 123.85297 | 2916 ft | 141 kts | 45° |
| 2026-05-04 12:39 | 10.18843 | 123.85998 | 2834 ft | 141 kts | 45° |
| 2026-05-04 12:39 | 10.19543 | 123.86693 | 2748 ft | 141 kts | 45° |
| 2026-05-04 12:39 | 10.20241 | 123.87389 | 2652 ft | 141 kts | 46° |
| 2026-05-04 12:40 | 10.20939 | 123.88087 | 2494 ft | 141 kts | 45° |
| 2026-05-04 12:40 | 10.21641 | 123.88789 | 2263 ft | 140 kts | 45° |
| 2026-05-04 12:40 | 10.22333 | 123.89483 | 2062 ft | 140 kts | 45° |
| 2026-05-04 12:40 | 10.23023 | 123.90174 | 1877 ft | 139 kts | 45° |
| 2026-05-04 12:41 | 10.23713 | 123.90867 | 1689 ft | 139 kts | 45° |
| 2026-05-04 12:41 | 10.24395 | 123.91550 | 1500 ft | 138 kts | 45° |
| 2026-05-04 12:41 | 10.25083 | 123.92242 | 1316 ft | 138 kts | 45° |
| 2026-05-04 12:41 | 10.25769 | 123.92931 | 1132 ft | 138 kts | 45° |
| 2026-05-04 12:42 | 10.26448 | 123.93611 | 951 ft | 137 kts | 45° |
| 2026-05-04 12:42 | 10.27127 | 123.94296 | 769 ft | 137 kts | 45° |
| 2026-05-04 12:42 | 10.27797 | 123.94984 | 605 ft | 136 kts | 44° |
| 2026-05-04 12:42 | 10.28477 | 123.95662 | 404 ft | 136 kts | 44° |
| 2026-05-04 12:43 | 10.29151 | 123.96339 | 227 ft | 136 kts | 44° |
| 2026-05-04 12:43 | 10.29821 | 123.97006 | 52 ft | 135 kts | 44° |
| 2026-05-04 12:43 | 10.30443 | 123.97629 | 36 ft | 105 kts | 46° |
| 2026-05-04 12:43 | 10.30840 | 123.98028 | 36 ft | 61 kts | 45° |
| 2026-05-04 12:44 | 10.31019 | 123.98206 | 36 ft | 11 kts | 45° |
| 2026-05-04 12:44 | 10.31080 | 123.98261 | 36 ft | 11 kts | 34° |
| 2026-05-04 12:44 | 10.31155 | 123.98302 | 36 ft | 12 kts | 21° |
| 2026-05-04 12:44 | 10.31240 | 123.98331 | 36 ft | 13 kts | 18° |
| 2026-05-04 12:45 | 10.31319 | 123.98353 | 36 ft | 10 kts | 11° |
| 2026-05-04 12:45 | 10.31386 | 123.98332 | 36 ft | 10 kts | 314° |
| 2026-05-04 12:45 | 10.31440 | 123.98275 | 36 ft | 9 kts | 316° |
| 2026-05-04 12:45 | 10.31487 | 123.98227 | 36 ft | 10 kts | 313° |
| 2026-05-04 12:46 | 10.31533 | 123.98179 | 36 ft | 5 kts | 315° |
| 2026-05-04 12:46 | 10.31562 | 123.98146 | 36 ft | 6 kts | 298° |
| 2026-05-04 12:46 | 10.31558 | 123.98099 | 36 ft | 7 kts | 235° |
| 2026-05-04 12:46 | 10.31545 | 123.98078 | 36 ft | 2 kts | 265° |
| 2026-05-04 12:47 | 10.31558 | 123.98058 | 36 ft | 4 kts | 318° |
| 2026-05-04 12:47 | 10.31582 | 123.98035 | 36 ft | 2 kts | 314° |
| 2026-05-04 12:47 | 10.31594 | 123.98023 | 36 ft | 0 kts | 314° |
| 2026-05-04 12:47 | 10.31596 | 123.98020 | 36 ft | 0 kts | 314° |